Time;durP1;ratioP1;P1;durP2;ratioP2;P2;SDS_P1;SDS_P2;PMS_P1;PMS_P2;Temp;Humidity;BMP_temperature;BMP_pressure;BME280_temperature;BME280_humidity;BME280_pressure;Samples;Min_cycle;Max_cycle;Signal;HPM_P1;HPM_P2
2022/03/28 00:02:12;;;;;;;25.20;18.30;;;11.70;36.80;;;;;;6196139;23;20134;-93
2022/03/28 00:04:44;;;;;;;23.20;17.07;;;11.70;34.80;;;;;;6210891;23;20182;-77
2022/03/28 00:07:10;;;;;;;26.77;18.23;;;11.80;32.50;;;;;;6210032;22;20138;-75
2022/03/28 00:09:45;;;;;;;24.10;18.57;;;11.70;32.50;;;;;;6209295;22;20149;-94
2022/03/28 00:15:32;;;;;;;22.57;17.10;;;11.80;28.80;;;;;;6203242;23;20200;-78
2022/03/28 00:17:58;;;;;;;24.10;18.27;;;11.70;29.60;;;;;;6200748;23;20134;-93
2022/03/28 00:21:00;;;;;;;23.57;17.73;;;11.60;34.80;;;;;;6194557;23;20137;-80
2022/03/28 00:23:27;;;;;;;26.43;18.37;;;11.60;36.10;;;;;;6190840;23;20204;-86
2022/03/28 00:25:53;;;;;;;26.80;19.07;;;11.60;34.30;;;;;;6190984;23;20146;-91
2022/03/28 00:28:20;;;;;;;22.43;17.60;;;11.60;36.40;;;;;;6201161;23;20181;-86
2022/03/28 00:30:46;;;;;;;23.33;18.13;;;11.60;35.30;;;;;;6204816;23;20122;-78
2022/03/28 00:33:17;;;;;;;22.87;18.37;;;11.50;36.90;;;;;;6179364;23;20144;-76
2022/03/28 00:35:43;;;;;;;24.83;18.37;;;11.60;34.80;;;;;;6204854;23;20146;-76
2022/03/28 00:38:11;;;;;;;24.63;18.30;;;11.60;34.10;;;;;;6204271;23;20130;-75
2022/03/28 00:40:40;;;;;;;24.93;18.07;;;11.50;31.40;;;;;;6179335;23;20180;-75
2022/03/28 00:43:29;;;;;;;23.57;18.60;;;11.50;30.80;;;;;;6206451;23;20142;-82
2022/03/28 00:46:06;;;;;;;23.87;18.50;;;11.50;32.30;;;;;;6199930;23;20546;-92
2022/03/28 00:48:51;;;;;;;24.37;18.20;;;11.50;33.90;;;;;;6194739;23;20138;-79
2022/03/28 00:51:28;;;;;;;27.83;18.47;;;11.40;36.10;;;;;;6193495;23;20173;-84
2022/03/28 00:54:01;;;;;;;25.33;18.77;;;11.20;39.80;;;;;;6148606;23;20153;-95
2022/03/28 00:56:27;;;;;;;21.53;16.57;;;11.30;42.60;;;;;;6192913;23;20138;-94
2022/03/28 00:58:53;;;;;;;27.20;17.97;;;11.10;43.60;;;;;;6193877;23;20193;-76
2022/03/28 01:01:18;;;;;;;25.77;18.07;;;11.00;46.50;;;;;;6202543;23;20470;-92
2022/03/28 01:03:47;;;;;;;26.03;18.47;;;11.00;46.60;;;;;;6169038;23;20272;-94
2022/03/28 01:06:13;;;;;;;27.57;17.63;;;10.90;49.00;;;;;;6198346;23;20192;-78
2022/03/28 01:08:39;;;;;;;26.37;18.60;;;10.90;47.00;;;;;;6177196;23;20473;-88
2022/03/28 01:11:09;;;;;;;25.53;18.27;;;10.80;50.10;;;;;;6195416;23;20134;-80
2022/03/28 01:13:38;;;;;;;28.27;17.80;;;10.70;50.40;;;;;;6193047;23;20134;-87
2022/03/28 01:16:05;;;;;;;29.40;18.17;;;10.60;52.40;;;;;;6196894;23;20165;-75
2022/03/28 01:18:31;;;;;;;27.67;19.37;;;10.60;53.60;;;;;;6200763;23;20138;-77
2022/03/28 01:21:02;;;;;;;25.97;17.57;;;10.70;50.20;;;;;;6209615;23;20138;-75
2022/03/28 01:23:29;;;;;;;25.73;19.73;;;10.60;48.10;;;;;;6185119;22;20165;-77
2022/03/28 01:25:56;;;;;;;27.90;19.20;;;10.50;48.00;;;;;;6212374;22;20146;-75
2022/03/28 01:28:27;;;;;;;26.53;18.70;;;10.50;45.00;;;;;;6211866;22;20130;-76
2022/03/28 01:30:55;;;;;;;27.20;18.87;;;10.50;43.60;;;;;;6212372;22;20145;-73
2022/03/28 01:33:21;;;;;;;26.97;19.17;;;10.50;42.60;;;;;;6213051;22;20157;-76
2022/03/28 01:35:49;;;;;;;25.43;19.20;;;10.60;43.00;;;;;;6211825;22;20211;-75
2022/03/28 01:38:19;;;;;;;28.27;20.60;;;10.60;41.10;;;;;;6180102;23;20142;-75
2022/03/28 01:41:07;;;;;;;27.67;19.57;;;10.40;41.50;;;;;;6205782;23;20186;-76
2022/03/28 01:44:10;;;;;;;26.73;19.50;;;10.30;44.90;;;;;;6206626;23;20173;-75
2022/03/28 01:46:45;;;;;;;26.17;19.73;;;10.30;50.10;;;;;;6198289;23;20177;-80
2022/03/28 01:49:34;;;;;;;26.17;19.77;;;10.30;48.70;;;;;;6202483;23;20461;-95
2022/03/28 01:52:01;;;;;;;28.07;18.30;;;10.30;49.00;;;;;;6200649;23;20138;-79
2022/03/28 01:54:28;;;;;;;26.53;18.80;;;10.20;47.50;;;;;;6183992;23;20145;-76
2022/03/28 01:56:57;;;;;;;25.87;18.63;;;10.30;48.00;;;;;;6210686;23;20133;-77
2022/03/28 01:59:25;;;;;;;25.20;19.13;;;10.40;37.40;;;;;;6160923;23;20142;-78
2022/03/28 02:01:51;;;;;;;22.13;17.47;;;10.40;32.80;;;;;;6211262;23;20150;-82
2022/03/28 02:07:41;;;;;;;24.10;17.43;;;10.40;20.50;;;;;;6209379;22;20149;-76
2022/03/28 02:10:11;;;;;;;25.67;18.80;;;10.40;20.00;;;;;;6185846;23;20198;-79
2022/03/28 02:12:39;;;;;;;24.37;18.13;;;10.20;21.00;;;;;;6209648;22;20492;-80
2022/03/28 02:15:30;;;;;;;23.70;17.77;;;10.40;16.70;;;;;;6208744;22;20141;-77
2022/03/28 02:18:01;;;;;;;24.87;17.67;;;10.30;15.10;;;;;;6210381;22;20237;-76
2022/03/28 02:20:29;;;;;;;25.30;17.83;;;10.20;12.70;;;;;;6207255;23;20134;-84
2022/03/28 02:22:58;;;;;;;24.60;18.77;;;10.10;12.30;;;;;;6201379;23;20169;-76
2022/03/28 02:25:30;;;;;;;21.37;16.40;;;10.10;12.10;;;;;;6200422;23;20177;-94
2022/03/28 02:27:55;;;;;;;22.13;17.17;;;10.20;14.40;;;;;;6205990;23;20156;-75
2022/03/28 02:30:24;;;;;;;25.70;16.87;;;10.20;12.80;;;;;;6183496;23;20133;-74
2022/03/28 02:32:53;;;;;;;20.83;16.40;;;10.40;6.50;;;;;;6209598;23;20145;-76
2022/03/28 02:35:19;;;;;;;25.37;17.60;;;10.30;3.00;;;;;;6210413;23;20134;-76
2022/03/28 02:38:01;;;;;;;25.70;17.63;;;10.20;6.30;;;;;;6208936;22;20142;-75
2022/03/28 02:43:50;;;;;;;24.27;16.10;;;10.20;10.60;;;;;;6200765;23;20211;-91
2022/03/28 02:49:37;;;;;;;24.03;17.60;;;10.20;9.00;;;;;;6210792;22;20590;-74
2022/03/28 02:52:59;;;;;;;23.77;17.20;;;10.40;9.70;;;;;;6210708;22;20142;-75
2022/03/28 02:55:58;;;;;;;22.60;17.07;;;10.20;8.20;;;;;;6209425;22;20134;-77
2022/03/28 02:58:31;;;;;;;22.87;16.57;;;10.10;10.00;;;;;;6207953;23;20156;-76
2022/03/28 03:00:57;;;;;;;21.47;17.30;;;10.00;11.60;;;;;;6181538;23;20200;-79
2022/03/28 03:03:25;;;;;;;24.40;16.77;;;10.10;11.10;;;;;;6205079;22;20224;-78
2022/03/28 03:05:50;;;;;;;22.50;16.27;;;10.10;9.40;;;;;;6190368;23;20652;-82
2022/03/28 03:08:17;;;;;;;26.37;17.00;;;10.10;9.70;;;;;;6192028;23;20233;-90
2022/03/28 03:10:44;;;;;;;26.47;17.97;;;10.20;8.70;;;;;;6202067;23;20157;-88
2022/03/28 03:13:10;;;;;;;23.03;17.57;;;10.30;6.90;;;;;;6169575;23;20144;-89
2022/03/28 03:15:38;;;;;;;24.57;18.37;;;10.50;6.00;;;;;;6169304;23;20196;-93
2022/03/28 03:18:05;;;;;;;24.60;17.53;;;10.10;6.40;;;;;;6193610;23;20591;-92
2022/03/28 03:20:32;;;;;;;24.47;16.87;;;10.10;10.40;;;;;;6197288;23;20352;-94
2022/03/28 03:22:59;;;;;;;23.20;16.57;;;10.00;12.40;;;;;;6196834;23;20138;-93
2022/03/28 03:25:25;;;;;;;26.03;17.83;;;10.10;8.30;;;;;;6190804;23;20201;-89
2022/03/28 03:27:51;;;;;;;22.27;16.40;;;10.10;9.80;;;;;;6165353;23;20145;-87
2022/03/28 03:30:19;;;;;;;25.53;17.57;;;10.00;11.10;;;;;;6191814;23;20140;-85
2022/03/28 03:32:45;;;;;;;25.93;18.43;;;10.00;10.10;;;;;;6166148;23;20138;-84
2022/03/28 03:35:11;;;;;;;22.83;17.97;;;9.90;14.00;;;;;;6141095;23;20157;-83
2022/03/28 03:37:40;;;;;;;23.40;17.47;;;10.00;12.70;;;;;;6165884;23;20142;-74
2022/03/28 03:40:12;;;;;;;25.00;17.70;;;9.90;17.40;;;;;;6209047;23;20138;-74
2022/03/28 03:42:59;;;;;;;24.30;17.33;;;9.90;17.90;;;;;;6211489;22;20134;-75
2022/03/28 03:45:28;;;;;;;25.13;18.27;;;10.00;17.70;;;;;;6210098;22;20177;-75
2022/03/28 03:47:53;;;;;;;25.83;18.77;;;10.00;16.50;;;;;;6205540;23;20156;-74
2022/03/28 03:50:20;;;;;;;27.80;19.97;;;10.00;16.50;;;;;;6205865;23;20158;-75
2022/03/28 03:52:47;;;;;;;29.33;17.80;;;10.10;17.90;;;;;;6207635;22;20145;-76
2022/03/28 03:55:13;;;;;;;24.27;17.60;;;10.20;14.50;;;;;;6211046;22;20125;-74
2022/03/28 03:57:42;;;;;;;22.53;17.57;;;10.20;11.40;;;;;;6182708;23;20146;-75
2022/03/28 04:00:15;;;;;;;24.33;17.47;;;10.10;8.90;;;;;;6207941;23;20122;-79
2022/03/28 04:02:40;;;;;;;24.67;17.90;;;10.10;11.30;;;;;;6210861;22;20222;-74
2022/03/28 04:05:09;;;;;;;24.60;16.43;;;10.10;14.00;;;;;;6203068;23;20185;-76
2022/03/28 04:07:35;;;;;;;27.03;17.73;;;9.90;10.00;;;;;;6166174;23;20221;-89
2022/03/28 04:10:02;;;;;;;30.00;18.47;;;9.80;15.60;;;;;;6195546;23;20200;-92
2022/03/28 04:15:50;;;;;;;26.30;17.90;;;9.80;17.90;;;;;;6198739;23;20141;-87
2022/03/28 04:18:16;;;;;;;24.47;17.87;;;9.80;16.80;;;;;;6177253;23;20186;-78
2022/03/28 04:20:45;;;;;;;25.13;17.53;;;10.10;11.40;;;;;;6184492;23;20161;-79
2022/03/28 04:23:10;;;;;;;26.57;17.53;;;10.20;4.10;;;;;;6208083;23;20149;-81
2022/03/28 04:25:38;;;;;;;23.80;17.40;;;10.30;1.00;;;;;;6206557;23;20157;-74
2022/03/28 04:28:08;;;;;;;24.47;16.83;;;10.20;1.00;;;;;;6209110;23;20137;-75
2022/03/28 04:30:36;;;;;;;24.70;17.87;;;10.10;1.00;;;;;;6206637;23;20134;-75
2022/03/28 04:33:46;;;;;;;23.87;18.10;;;9.80;5.10;;;;;;6204965;23;20137;-79
2022/03/28 04:36:18;;;;;;;26.47;17.83;;;9.80;15.20;;;;;;6195569;23;20126;-86
2022/03/28 04:38:44;;;;;;;23.20;17.40;;;9.80;13.30;;;;;;6195316;23;20134;-93
2022/03/28 04:41:09;;;;;;;22.67;16.27;;;9.80;13.70;;;;;;6202767;23;20194;-80
2022/03/28 04:43:35;;;;;;;25.97;17.10;;;9.70;15.60;;;;;;6212709;22;20181;-76
2022/03/28 04:46:02;;;;;;;28.50;18.17;;;9.60;20.80;;;;;;6210892;23;20153;-78
2022/03/28 04:48:28;;;;;;;26.43;17.27;;;9.50;24.60;;;;;;6208175;23;20144;-76
2022/03/28 04:51:12;;;;;;;24.10;17.20;;;9.70;22.60;;;;;;6210246;23;20135;-76
2022/03/28 04:53:37;;;;;;;23.47;15.73;;;9.50;21.70;;;;;;6209768;23;20126;-75
2022/03/28 04:56:06;;;;;;;27.03;17.07;;;9.40;20.50;;;;;;6209736;22;20149;-75
2022/03/28 04:58:39;;;;;;;21.77;16.53;;;9.20;27.20;;;;;;6206727;23;20221;-74
2022/03/28 05:01:05;;;;;;;24.33;16.80;;;9.20;28.50;;;;;;6187226;22;20142;-76
2022/03/28 05:03:38;;;;;;;22.57;17.17;;;9.30;25.80;;;;;;6207554;23;20200;-89
2022/03/28 05:06:05;;;;;;;24.63;17.77;;;9.20;26.60;;;;;;6206848;23;20203;-76
2022/03/28 05:08:31;;;;;;;29.17;18.10;;;9.20;28.50;;;;;;6207648;23;20161;-75
2022/03/28 05:11:06;;;;;;;27.97;18.33;;;9.20;29.00;;;;;;6206975;22;20160;-76
2022/03/28 05:14:00;;;;;;;29.07;17.60;;;9.10;27.50;;;;;;6200941;23;20211;-80
2022/03/28 05:16:38;;;;;;;24.47;17.33;;;9.00;31.20;;;;;;6203944;23;20194;-75
2022/03/28 05:19:04;;;;;;;26.60;17.40;;;8.90;33.90;;;;;;6176245;23;20169;-83
2022/03/28 05:21:31;;;;;;;30.53;18.53;;;8.90;35.40;;;;;;6173110;23;20169;-78
2022/03/28 05:23:57;;;;;;;31.30;18.00;;;9.00;34.90;;;;;;6196714;23;20270;-95
2022/03/28 05:26:28;;;;;;;29.37;18.40;;;9.00;31.00;;;;;;6194392;23;20138;-77
2022/03/28 05:28:57;;;;;;;29.77;18.17;;;8.90;27.70;;;;;;6202236;23;20149;-76
2022/03/28 05:31:23;;;;;;;29.73;17.63;;;9.00;29.80;;;;;;6208461;23;20134;-79
2022/03/28 05:33:56;;;;;;;32.50;18.03;;;9.00;26.40;;;;;;6180425;23;20126;-75
2022/03/28 05:36:22;;;;;;;33.27;20.17;;;9.10;24.90;;;;;;6204292;23;20200;-78
2022/03/28 05:38:54;;;;;;;30.40;20.23;;;9.30;22.70;;;;;;6206181;23;20202;-78
2022/03/28 05:41:32;;;;;;;26.43;17.60;;;9.50;18.50;;;;;;6207207;23;20138;-75
2022/03/28 05:44:02;;;;;;;30.33;18.60;;;9.50;12.60;;;;;;6177631;23;20204;-76
2022/03/28 05:47:12;;;;;;;31.00;21.10;;;9.60;11.80;;;;;;6200476;23;20146;-76
2022/03/28 05:50:18;;;;;;;36.43;21.97;;;9.80;21.80;;;;;;6204334;23;20130;-76
2022/03/28 05:53:19;;;;;;;39.70;21.97;;;9.80;23.00;;;;;;6195112;23;20161;-75
2022/03/28 05:55:45;;;;;;;37.87;21.23;;;9.80;26.00;;;;;;6191525;23;20228;-83
2022/03/28 05:58:38;;;;;;;30.67;20.30;;;9.80;32.10;;;;;;6190390;23;20220;-86
2022/03/28 06:01:18;;;;;;;31.17;20.17;;;9.60;36.90;;;;;;6189833;23;20586;-83
2022/03/28 06:03:43;;;;;;;35.30;19.70;;;9.60;39.50;;;;;;6190102;23;20169;-81
2022/03/28 06:06:09;;;;;;;28.53;19.20;;;9.50;40.00;;;;;;6163612;23;20141;-88
2022/03/28 06:08:36;;;;;;;31.40;19.93;;;9.50;42.40;;;;;;6189245;23;20138;-78
2022/03/28 06:11:03;;;;;;;33.27;19.37;;;9.50;44.40;;;;;;6188093;23;20141;-79
2022/03/28 06:13:30;;;;;;;38.07;21.50;;;9.50;46.30;;;;;;6187718;23;20162;-76
2022/03/28 06:15:56;;;;;;;30.70;20.27;;;9.60;44.30;;;;;;6189801;23;20149;-76
2022/03/28 06:18:22;;;;;;;29.67;19.83;;;9.80;42.00;;;;;;6188867;23;20584;-89
2022/03/28 06:20:48;;;;;;;33.20;20.03;;;9.90;38.50;;;;;;6188925;23;20229;-79
2022/03/28 06:23:15;;;;;;;27.87;17.93;;;9.90;32.50;;;;;;6189982;23;20176;-85
2022/03/28 06:25:42;;;;;;;32.07;20.20;;;9.90;32.30;;;;;;6191683;23;20476;-89
2022/03/28 06:28:09;;;;;;;30.53;19.53;;;10.00;29.60;;;;;;6190860;23;20165;-82
2022/03/28 06:30:35;;;;;;;31.83;20.17;;;10.10;26.30;;;;;;6190489;23;20189;-76
2022/03/28 06:33:01;;;;;;;36.87;20.73;;;10.30;21.20;;;;;;6191763;23;20221;-77
2022/03/28 06:35:26;;;;;;;35.07;21.47;;;10.30;20.50;;;;;;6198572;23;20212;-79
2022/03/28 06:37:55;;;;;;;31.33;20.13;;;10.20;23.40;;;;;;6167212;23;20172;-78
2022/03/28 06:40:24;;;;;;;38.13;22.10;;;10.20;28.50;;;;;;6193043;23;20534;-83
2022/03/28 06:42:50;;;;;;;35.00;20.43;;;10.30;25.80;;;;;;6193279;23;20133;-75
2022/03/28 06:45:17;;;;;;;32.60;21.03;;;10.40;23.40;;;;;;6204463;23;20208;-82
2022/03/28 06:47:43;;;;;;;32.00;20.23;;;10.40;24.80;;;;;;6204337;23;20210;-76
2022/03/28 06:50:09;;;;;;;36.70;20.17;;;10.50;20.40;;;;;;6205657;23;20122;-76
2022/03/28 06:52:51;;;;;;;29.17;20.53;;;10.40;23.30;;;;;;6172628;23;20224;-76
2022/03/28 06:55:19;;;;;;;36.03;20.50;;;10.50;24.50;;;;;;6200845;23;20154;-77
2022/03/28 06:58:05;;;;;;;27.60;20.63;;;10.60;21.20;;;;;;6196551;23;20161;-77
2022/03/28 07:00:36;;;;;;;39.03;19.97;;;10.70;18.60;;;;;;6196538;23;20516;-78
2022/03/28 07:03:34;;;;;;;32.23;20.13;;;10.70;17.90;;;;;;6198413;23;20521;-78
2022/03/28 07:06:01;;;;;;;32.37;20.37;;;10.80;13.50;;;;;;6178457;23;20196;-88
2022/03/28 07:08:34;;;;;;;30.83;20.63;;;11.00;11.20;;;;;;6201308;23;20125;-79
2022/03/28 07:11:06;;;;;;;31.87;20.93;;;11.10;10.00;;;;;;6212363;22;20141;-82
2022/03/28 07:13:40;;;;;;;32.30;21.03;;;11.10;2.80;;;;;;6203899;23;20162;-78
2022/03/28 07:19:29;;;;;;;31.50;21.30;;;11.20;1.00;;;;;;6193566;23;20181;-81
2022/03/28 07:21:55;;;;;;;32.10;21.20;;;11.20;1.00;;;;;;6193050;23;20141;-85
2022/03/28 07:24:21;;;;;;;30.70;21.03;;;11.30;1.00;;;;;;6196302;23;20198;-78
2022/03/28 07:26:53;;;;;;;32.53;22.10;;;11.40;1.00;;;;;;6208736;22;20130;-77
2022/03/28 07:29:20;;;;;;;32.87;22.60;;;11.50;1.00;;;;;;6208150;23;20160;-81
2022/03/28 07:35:10;;;;;;;36.17;20.40;;;11.50;1.00;;;;;;6197989;23;20146;-91
2022/03/28 07:37:55;;;;;;;36.77;21.53;;;11.60;1.00;;;;;;6202129;23;20239;-78
2022/03/28 07:40:36;;;;;;;36.00;23.10;;;11.70;1.00;;;;;;6203019;23;20590;-77
2022/03/28 07:43:03;;;;;;;38.43;21.33;;;11.80;1.00;;;;;;6173182;23;20149;-78
2022/03/28 07:45:36;;;;;;;35.77;22.63;;;11.80;1.00;;;;;;6193529;23;20250;-77
2022/03/28 07:48:38;;;;;;;34.70;21.63;;;11.70;1.00;;;;;;6194682;23;20138;-77
2022/03/28 07:51:04;;;;;;;32.57;21.33;;;11.90;1.00;;;;;;6173588;23;20164;-78
2022/03/28 07:57:15;;;;;;;36.40;21.70;;;12.00;1.00;;;;;;6204046;23;20153;-76
2022/03/28 07:59:49;;;;;;;30.90;20.33;;;12.10;1.00;;;;;;6179289;23;20150;-77
2022/03/28 08:02:16;;;;;;;40.67;21.10;;;12.10;1.00;;;;;;6204589;23;20145;-76
2022/03/28 08:04:43;;;;;;;34.70;20.43;;;12.10;1.00;;;;;;6205736;23;20258;-77
2022/03/28 08:07:12;;;;;;;37.80;21.40;;;12.20;1.00;;;;;;6156766;23;20149;-78
2022/03/28 08:09:41;;;;;;;32.20;20.77;;;12.40;1.00;;;;;;6202636;23;20137;-80
2022/03/28 08:12:15;;;;;;;31.63;20.17;;;12.40;1.00;;;;;;6206432;23;20134;-80
2022/03/28 08:14:51;;;;;;;34.00;21.43;;;12.50;1.00;;;;;;6205382;23;20166;-76
2022/03/28 08:17:28;;;;;;;35.33;20.37;;;12.70;1.00;;;;;;6205235;23;20208;-76
2022/03/28 08:19:57;;;;;;;42.33;20.50;;;12.80;1.00;;;;;;6201180;23;20230;-79
2022/03/28 08:22:49;;;;;;;36.07;21.50;;;12.90;1.00;;;;;;6205267;23;20191;-75
2022/03/28 08:25:29;;;;;;;30.90;21.27;;;13.20;1.00;;;;;;6211945;23;20246;-75
2022/03/28 08:27:55;;;;;;;26.93;19.93;;;13.20;1.00;;;;;;6208949;23;20119;-77
2022/03/28 08:30:36;;;;;;;35.47;21.30;;;13.40;1.00;;;;;;6209562;23;20158;-75
2022/03/28 08:33:02;;;;;;;30.93;22.07;;;13.50;1.00;;;;;;6210482;23;20153;-77
2022/03/28 08:35:28;;;;;;;31.80;22.13;;;13.60;1.00;;;;;;6180066;23;20240;-76
2022/03/28 08:38:07;;;;;;;34.63;22.80;;;13.70;1.00;;;;;;6178177;23;20151;-79
2022/03/28 08:44:29;;;;;;;31.13;20.67;;;13.80;1.00;;;;;;6207089;23;20233;-76
2022/03/28 08:46:58;;;;;;;30.23;20.07;;;13.80;1.00;;;;;;6208350;23;20144;-77
2022/03/28 08:49:49;;;;;;;32.67;22.07;;;14.10;1.00;;;;;;6206040;23;20178;-76
2022/03/28 08:56:02;;;;;;;28.90;21.30;;;14.40;1.00;;;;;;6204594;23;20126;-75
2022/03/28 08:58:57;;;;;;;30.87;21.53;;;14.60;1.00;;;;;;6175967;23;20150;-76
2022/03/28 09:01:52;;;;;;;30.23;22.10;;;14.80;1.00;;;;;;6205446;23;20134;-76
2022/03/28 09:04:39;;;;;;;31.07;21.83;;;15.10;1.00;;;;;;6202073;23;20157;-76
2022/03/28 09:08:03;;;;;;;33.30;22.10;;;15.20;99.90;;;;;;6203877;23;20164;-76
2022/03/28 09:14:06;;;;;;;32.17;22.20;;;15.10;99.90;;;;;;6207592;23;20161;-78
2022/03/28 09:16:59;;;;;;;32.20;21.83;;;15.20;99.90;;;;;;6206794;23;20212;-76
2022/03/28 09:22:56;;;;;;;29.97;21.70;;;15.60;99.90;;;;;;6200432;23;20182;-77
2022/03/28 09:25:23;;;;;;;33.13;22.23;;;15.80;99.90;;;;;;6173388;23;20344;-76
2022/03/28 09:28:04;;;;;;;31.20;23.50;;;15.80;99.90;;;;;;6203772;23;20157;-78
2022/03/28 09:31:14;;;;;;;29.90;21.73;;;15.80;99.90;;;;;;6202035;23;20140;-78
2022/03/28 09:34:18;;;;;;;32.13;20.60;;;15.90;25.10;;;;;;6204658;23;20146;-76
2022/03/28 09:36:52;;;;;;;25.33;20.03;;;15.70;1.00;;;;;;6175040;23;20157;-77
2022/03/28 09:39:32;;;;;;;28.77;20.50;;;15.50;1.00;;;;;;6174724;23;20157;-76
2022/03/28 09:42:16;;;;;;;28.47;20.57;;;15.70;1.00;;;;;;6209338;23;20140;-83
2022/03/28 09:44:54;;;;;;;26.10;19.90;;;15.80;1.00;;;;;;6201540;23;20216;-76
2022/03/28 09:48:02;;;;;;;29.97;21.17;;;15.80;98.70;;;;;;6195905;23;20180;-75
2022/03/28 09:54:20;;;;;;;26.07;20.77;;;15.60;1.00;;;;;;6199548;23;20234;-77
2022/03/28 09:57:08;;;;;;;28.30;21.47;;;15.60;1.00;;;;;;6203746;23;20165;-76
2022/03/28 09:59:47;;;;;;;31.20;23.43;;;15.70;1.00;;;;;;6209657;22;20142;-75
2022/03/28 10:02:33;;;;;;;29.97;20.67;;;15.90;1.00;;;;;;6182718;23;20138;-78
2022/03/28 10:05:46;;;;;;;27.37;20.80;;;16.20;3.60;;;;;;6203519;23;20173;-78
2022/03/28 10:08:38;;;;;;;26.37;20.77;;;16.10;1.00;;;;;;6204835;23;20165;-76
2022/03/28 10:11:10;;;;;;;31.33;21.50;;;16.20;1.00;;;;;;6201628;23;20134;-75
2022/03/28 10:13:42;;;;;;;30.23;22.47;;;16.30;99.90;;;;;;6197715;23;20157;-80
2022/03/28 10:16:09;;;;;;;30.90;21.83;;;16.40;1.00;;;;;;6193150;23;20165;-77
2022/03/28 10:18:41;;;;;;;29.47;22.30;;;16.40;99.90;;;;;;6172078;23;20173;-76
2022/03/28 10:21:35;;;;;;;29.47;21.23;;;16.20;99.90;;;;;;6198405;23;20149;-75
2022/03/28 10:24:13;;;;;;;30.50;21.50;;;16.20;99.90;;;;;;6197890;23;20180;-77
2022/03/28 10:26:56;;;;;;;27.23;21.00;;;16.00;86.90;;;;;;6193651;23;20154;-89
2022/03/28 10:29:42;;;;;;;28.00;21.20;;;15.70;1.00;;;;;;6197694;23;20186;-78
2022/03/28 10:32:24;;;;;;;28.80;20.83;;;15.80;1.00;;;;;;6173457;23;20482;-76
2022/03/28 10:35:18;;;;;;;27.93;21.63;;;15.70;1.00;;;;;;6197739;23;20137;-93
2022/03/28 10:37:49;;;;;;;29.70;20.90;;;15.90;1.00;;;;;;6163669;23;20257;-82
2022/03/28 10:40:31;;;;;;;27.77;21.43;;;15.90;1.00;;;;;;6164717;23;20196;-89
2022/03/28 10:42:59;;;;;;;30.30;22.33;;;16.00;99.90;;;;;;6190760;23;20447;-83
2022/03/28 10:45:44;;;;;;;28.57;20.63;;;16.10;99.90;;;;;;6190762;23;20246;-84
2022/03/28 10:48:11;;;;;;;27.60;19.53;;;16.30;99.90;;;;;;6169660;23;20153;-79
2022/03/28 10:50:53;;;;;;;22.17;16.77;;;16.30;99.90;;;;;;6166507;23;20138;-76
2022/03/28 10:53:32;;;;;;;24.97;17.40;;;16.20;1.00;;;;;;6200085;23;20134;-76
2022/03/28 10:56:19;;;;;;;25.73;19.67;;;16.10;43.70;;;;;;6203047;23;20153;-76
2022/03/28 10:58:56;;;;;;;23.87;18.73;;;16.20;99.90;;;;;;6200691;23;20145;-79
2022/03/28 11:01:24;;;;;;;26.20;19.50;;;16.50;1.00;;;;;;6170583;23;20610;-80
2022/03/28 11:04:22;;;;;;;28.43;20.27;;;16.60;1.00;;;;;;6196417;23;20166;-77
2022/03/28 11:06:59;;;;;;;23.57;17.60;;;16.90;99.90;;;;;;6198337;23;20138;-79
2022/03/28 11:09:50;;;;;;;24.00;18.23;;;16.90;99.90;;;;;;6195603;23;20141;-80
2022/03/28 11:12:18;;;;;;;27.40;20.77;;;17.00;1.00;;;;;;6198468;23;20161;-80
2022/03/28 11:14:59;;;;;;;27.17;19.10;;;17.20;1.00;;;;;;6190970;23;20595;-79
2022/03/28 11:18:02;;;;;;;25.83;19.13;;;17.10;11.20;;;;;;6190748;23;20636;-85
2022/03/28 11:20:55;;;;;;;24.37;18.07;;;17.10;99.90;;;;;;6191236;23;20157;-78
2022/03/28 11:23:26;;;;;;;28.07;19.20;;;16.90;99.90;;;;;;6191387;23;20142;-87
2022/03/28 11:25:56;;;;;;;26.17;19.23;;;17.00;99.90;;;;;;6197443;23;20706;-78
2022/03/28 11:28:22;;;;;;;28.63;20.00;;;17.00;99.90;;;;;;6205215;23;20213;-81
2022/03/28 11:30:58;;;;;;;22.67;17.00;;;17.10;99.90;;;;;;6173049;23;20145;-87
2022/03/28 11:33:31;;;;;;;24.73;18.53;;;16.80;1.00;;;;;;6196921;23;20129;-94
2022/03/28 11:36:19;;;;;;;27.00;18.10;;;16.80;1.00;;;;;;6195881;23;20157;-78
2022/03/28 11:38:50;;;;;;;24.47;19.33;;;16.70;99.90;;;;;;6169838;23;20151;-79
2022/03/28 11:41:19;;;;;;;22.93;18.00;;;16.80;1.00;;;;;;6199506;23;20197;-91
2022/03/28 11:43:48;;;;;;;26.10;18.27;;;16.80;1.00;;;;;;6202865;23;20196;-87
2022/03/28 11:46:24;;;;;;;25.27;19.47;;;17.00;99.90;;;;;;6173556;23;20240;-83
2022/03/28 11:48:58;;;;;;;27.17;18.60;;;16.90;1.00;;;;;;6201174;23;20134;-86
2022/03/28 11:51:31;;;;;;;25.27;18.77;;;17.10;99.90;;;;;;6203936;23;20138;-81
2022/03/28 11:54:04;;;;;;;24.97;17.97;;;17.10;99.90;;;;;;6177147;23;20178;-78
2022/03/28 11:59:37;;;;;;;24.93;17.57;;;17.20;1.00;;;;;;6206370;23;20148;-77
2022/03/28 12:02:06;;;;;;;26.43;18.40;;;17.10;1.00;;;;;;6200144;23;20523;-76
2022/03/28 12:04:32;;;;;;;24.07;17.90;;;17.20;1.00;;;;;;6196298;23;20202;-83
2022/03/28 12:06:59;;;;;;;25.47;18.07;;;17.30;1.00;;;;;;6198093;23;20156;-86
2022/03/28 12:09:25;;;;;;;25.97;18.73;;;17.10;1.00;;;;;;6199034;23;20208;-78
2022/03/28 12:11:54;;;;;;;27.10;19.57;;;17.20;1.00;;;;;;6201696;23;20126;-77
2022/03/28 12:14:20;;;;;;;25.90;18.77;;;17.60;1.00;;;;;;6206911;23;20181;-75
2022/03/28 12:16:51;;;;;;;24.17;19.40;;;17.60;1.00;;;;;;6206801;23;20129;-74
2022/03/28 12:19:23;;;;;;;23.73;17.53;;;17.60;99.90;;;;;;6207957;23;20225;-75
2022/03/28 12:21:51;;;;;;;25.50;17.80;;;17.90;99.90;;;;;;6210138;23;20199;-74
2022/03/28 12:24:17;;;;;;;26.97;18.87;;;18.10;1.00;;;;;;6208668;23;20162;-76
2022/03/28 12:27:05;;;;;;;23.43;17.33;;;17.90;28.60;;;;;;6206984;23;20180;-75
2022/03/28 12:29:42;;;;;;;25.47;18.87;;;17.80;1.00;;;;;;6206965;23;20128;-76
2022/03/28 12:32:08;;;;;;;24.60;18.27;;;18.00;1.00;;;;;;6205257;23;20140;-75
2022/03/28 12:38:29;;;;;;;27.43;18.00;;;17.90;1.00;;;;;;6205529;23;20172;-76
2022/03/28 12:44:22;;;;;;;24.77;17.10;;;17.90;99.90;;;;;;6197416;23;20201;-80
2022/03/28 12:47:05;;;;;;;22.23;17.07;;;17.80;1.00;;;;;;6198856;23;20173;-76
2022/03/28 12:53:16;;;;;;;24.33;17.50;;;17.80;1.00;;;;;;6192948;23;20161;-79
2022/03/28 12:55:48;;;;;;;24.13;18.60;;;17.90;99.90;;;;;;6194766;23;20154;-79
2022/03/28 12:58:16;;;;;;;24.93;16.77;;;18.20;99.90;;;;;;6197305;23;20200;-76
2022/03/28 13:00:45;;;;;;;25.07;17.83;;;18.10;99.90;;;;;;6177432;23;20153;-83
2022/03/28 13:03:29;;;;;;;25.77;16.63;;;18.10;99.90;;;;;;6172424;23;20147;-77
2022/03/28 13:06:06;;;;;;;29.07;18.70;;;18.00;99.90;;;;;;6197623;23;20172;-75
2022/03/28 13:08:34;;;;;;;26.20;18.27;;;18.30;99.90;;;;;;6199663;23;20151;-76
2022/03/28 13:11:13;;;;;;;24.57;18.27;;;18.40;1.00;;;;;;6199437;23;20130;-78
2022/03/28 13:13:40;;;;;;;29.20;17.43;;;18.70;1.00;;;;;;6174704;23;20166;-75
2022/03/28 13:16:07;;;;;;;38.57;24.00;;;18.80;99.90;;;;;;6198788;23;20137;-77
2022/03/28 13:18:35;;;;;;;25.03;18.13;;;18.80;99.90;;;;;;6168050;23;20152;-83
2022/03/28 13:21:02;;;;;;;26.33;19.27;;;18.70;99.90;;;;;;6191574;23;20189;-92
2022/03/28 13:23:34;;;;;;;25.07;18.10;;;18.60;1.00;;;;;;6190512;23;20137;-90
2022/03/28 13:26:13;;;;;;;25.63;18.30;;;18.50;1.00;;;;;;6193848;23;20202;-81
2022/03/28 13:28:39;;;;;;;23.87;18.00;;;18.90;1.00;;;;;;6192928;23;20133;-78
2022/03/28 13:31:05;;;;;;;23.03;17.30;;;19.10;99.90;;;;;;6193789;23;20217;-86
2022/03/28 13:33:31;;;;;;;28.63;18.40;;;19.20;99.90;;;;;;6192614;23;20177;-80
2022/03/28 13:35:57;;;;;;;23.50;16.73;;;19.20;99.90;;;;;;6194337;23;20201;-77
2022/03/28 13:38:25;;;;;;;23.13;17.67;;;19.30;99.90;;;;;;6192347;23;20149;-76
2022/03/28 13:40:53;;;;;;;19.80;14.67;;;19.10;17.90;;;;;;6190069;23;20218;-86
2022/03/28 13:43:21;;;;;;;22.43;15.50;;;18.70;99.90;;;;;;6190571;23;20138;-85
2022/03/28 13:45:48;;;;;;;22.17;14.43;;;18.40;1.00;;;;;;6165113;23;20174;-77
2022/03/28 13:48:16;;;;;;;20.50;14.90;;;18.20;99.90;;;;;;6193554;23;20564;-76
2022/03/28 13:50:46;;;;;;;24.43;16.37;;;18.30;99.90;;;;;;6199408;23;20134;-76
2022/03/28 13:53:14;;;;;;;19.53;14.37;;;18.30;99.90;;;;;;6174426;23;20161;-76
2022/03/28 13:55:44;;;;;;;25.93;17.83;;;18.40;99.90;;;;;;6174810;23;20581;-76
2022/03/28 13:58:11;;;;;;;23.43;17.27;;;18.40;99.90;;;;;;6197052;23;20141;-77
2022/03/28 14:00:39;;;;;;;22.07;17.30;;;18.50;99.90;;;;;;6196297;23;20229;-75
2022/03/28 14:03:06;;;;;;;26.77;18.37;;;18.70;20.90;;;;;;6192580;23;20560;-88
2022/03/28 14:05:32;;;;;;;23.90;17.83;;;19.00;1.00;;;;;;6165119;23;20193;-84